createdAt,value
2018-02-16T00:00:31.135Z,2.29
2018-02-16T00:01:29.294Z,2.37
2018-02-16T00:02:29.261Z,2.37
2018-02-16T00:03:29.275Z,2.30
2018-02-16T00:04:29.189Z,2.40
2018-02-16T00:05:29.158Z,2.30
2018-02-16T00:06:31.150Z,2.40
2018-02-16T00:07:29.089Z,2.37
2018-02-16T00:08:29.054Z,2.36
2018-02-16T00:09:29.025Z,2.36
2018-02-16T00:10:28.992Z,2.25
2018-02-16T00:11:28.953Z,2.30
2018-02-16T00:12:28.924Z,2.33
2018-02-16T00:13:28.894Z,2.40
2018-02-16T00:14:28.854Z,2.42
2018-02-16T00:15:28.824Z,2.30
2018-02-16T00:16:28.807Z,2.36
2018-02-16T00:17:28.759Z,2.30
2018-02-16T00:18:28.726Z,2.37
2018-02-16T00:19:28.699Z,2.47
2018-02-16T00:20:28.665Z,2.42
2018-02-16T00:21:28.627Z,2.35
2018-02-16T00:22:28.598Z,2.45
2018-02-16T00:23:28.571Z,2.48
2018-02-16T00:24:28.522Z,2.37
2018-02-16T00:25:28.520Z,2.36
2018-02-16T00:26:30.120Z,2.33
2018-02-16T00:27:28.422Z,2.43
2018-02-16T00:28:29.111Z,2.48
2018-02-16T00:29:28.360Z,2.39
2018-02-16T00:30:28.328Z,2.45
2018-02-16T00:31:28.315Z,2.47
2018-02-16T00:32:28.262Z,2.45
2018-02-16T00:33:28.234Z,2.53
2018-02-16T00:34:28.213Z,2.48
2018-02-16T00:35:28.168Z,2.47
2018-02-16T00:36:28.133Z,2.55
2018-02-16T00:37:28.117Z,2.48
2018-02-16T00:38:28.072Z,2.57
2018-02-16T00:39:30.599Z,2.48
2018-02-16T00:40:28.012Z,2.57
2018-02-16T00:41:27.963Z,2.54
2018-02-16T00:42:27.929Z,2.58
2018-02-16T00:43:27.926Z,2.61
2018-02-16T00:44:27.864Z,2.57
2018-02-16T00:45:27.840Z,2.71
2018-02-16T00:46:27.872Z,2.76
2018-02-16T00:47:27.768Z,2.65
2018-02-16T00:48:27.729Z,2.65
2018-02-16T00:49:27.695Z,2.71
2018-02-16T00:50:27.665Z,2.72
2018-02-16T00:51:30.597Z,2.73
2018-02-16T00:52:29.092Z,2.65
2018-02-16T00:53:27.565Z,2.68
2018-02-16T00:54:27.608Z,2.55
2018-02-16T00:55:29.163Z,2.66
2018-02-16T00:56:27.639Z,2.60
2018-02-16T00:57:27.496Z,2.65
2018-02-16T00:58:27.488Z,2.68
2018-02-16T00:59:30.232Z,2.68
2018-02-16T01:00:27.482Z,2.66
2018-02-16T01:01:27.401Z,2.50
2018-02-16T01:02:27.377Z,2.60
2018-02-16T01:03:27.342Z,2.58
2018-02-16T01:04:27.329Z,2.54
2018-02-16T01:05:27.276Z,2.53
2018-02-16T01:06:27.220Z,2.53
2018-02-16T01:07:27.112Z,2.47
2018-02-16T01:08:28.630Z,2.57
2018-02-16T01:09:28.623Z,2.45
2018-02-16T01:10:27.002Z,2.48
2018-02-16T01:11:26.967Z,2.40
2018-02-16T01:12:26.936Z,2.36
2018-02-16T01:13:26.910Z,2.47
2018-02-16T01:14:26.874Z,2.54
2018-02-16T01:15:26.840Z,2.60
2018-02-16T01:16:26.806Z,2.69
2018-02-16T01:17:26.801Z,2.81
2018-02-16T01:18:26.738Z,2.78
2018-02-16T01:19:29.607Z,2.87
2018-02-16T01:20:28.605Z,2.89
2018-02-16T01:21:26.641Z,2.78
2018-02-16T01:22:26.603Z,2.93
2018-02-16T01:23:26.571Z,2.99
2018-02-16T01:24:26.533Z,2.99
2018-02-16T01:25:26.502Z,2.82
2018-02-16T01:26:27.504Z,2.81
2018-02-16T01:27:26.459Z,2.84
2018-02-16T01:28:26.406Z,3.08
2018-02-16T01:29:26.375Z,3.08
2018-02-16T01:30:26.343Z,3.11
2018-02-16T01:31:26.313Z,3.05
2018-02-16T01:32:26.278Z,3.02
2018-02-16T01:33:29.148Z,3.08
2018-02-16T01:34:26.213Z,3.00
2018-02-16T01:35:26.178Z,3.04
2018-02-16T01:36:26.136Z,3.04
2018-02-16T01:37:26.105Z,3.02
2018-02-16T01:38:26.071Z,3.11
2018-02-16T01:39:26.041Z,3.05
2018-02-16T01:40:26.004Z,3.02
2018-02-16T01:41:25.971Z,2.96
2018-02-16T01:42:27.596Z,2.96
2018-02-16T01:43:25.905Z,2.79
2018-02-16T01:44:25.879Z,2.84
2018-02-16T01:45:25.849Z,2.84
2018-02-16T01:46:25.814Z,2.94
2018-02-16T01:47:25.776Z,3.02
2018-02-16T01:48:25.742Z,3.07
2018-02-16T01:49:25.709Z,3.11
2018-02-16T01:50:25.674Z,3.02
2018-02-16T01:51:25.645Z,3.11
2018-02-16T01:52:25.614Z,3.14
2018-02-16T01:53:28.111Z,3.12
2018-02-16T01:54:25.548Z,3.14
2018-02-16T01:55:25.512Z,3.12
2018-02-16T01:56:25.481Z,3.09
2018-02-16T01:57:25.447Z,3.09
2018-02-16T01:58:25.419Z,3.25
2018-02-16T01:59:25.385Z,3.30
2018-02-16T02:00:25.352Z,3.26
2018-02-16T02:01:25.310Z,3.20
2018-02-16T02:02:25.307Z,3.20
2018-02-16T02:03:25.243Z,3.20
2018-02-16T02:04:25.212Z,3.17
2018-02-16T02:05:25.180Z,3.23
2018-02-16T02:06:25.174Z,3.08
2018-02-16T02:07:25.110Z,3.11
2018-02-16T02:08:25.081Z,3.08
2018-02-16T02:09:25.052Z,3.09
2018-02-16T02:10:26.612Z,3.11
2018-02-16T02:11:24.985Z,3.12
2018-02-16T02:12:24.950Z,3.04
2018-02-16T02:13:26.611Z,3.18
2018-02-16T02:14:24.885Z,3.09
2018-02-16T02:15:24.850Z,3.08
2018-02-16T02:16:24.848Z,3.11
2018-02-16T02:17:26.628Z,3.00
2018-02-16T02:18:27.628Z,3.14
2018-02-16T02:19:24.725Z,3.09
2018-02-16T02:20:24.693Z,3.14
2018-02-16T02:21:24.656Z,3.08
2018-02-16T02:22:26.609Z,3.23
2018-02-16T02:23:24.583Z,3.22
2018-02-16T02:24:24.556Z,3.15
2018-02-16T02:25:24.534Z,3.23
2018-02-16T02:26:24.491Z,3.09
2018-02-16T02:27:26.111Z,3.27
2018-02-16T02:28:24.423Z,3.32
2018-02-16T02:29:24.394Z,3.29
2018-02-16T02:30:24.394Z,3.26
2018-02-16T02:31:26.106Z,3.41
2018-02-16T02:32:24.286Z,3.26
2018-02-16T02:33:24.251Z,3.33
2018-02-16T02:34:24.226Z,3.20
2018-02-16T02:35:27.119Z,3.26
2018-02-16T02:36:24.159Z,3.18
2018-02-16T02:37:24.127Z,3.09
2018-02-16T02:38:24.093Z,3.23
2018-02-16T02:39:24.070Z,3.11
2018-02-16T02:40:24.037Z,3.11
2018-02-16T02:41:24.002Z,3.09
2018-02-16T02:42:26.623Z,3.11
2018-02-16T02:43:23.945Z,3.04
2018-02-16T02:44:23.903Z,3.05
2018-02-16T02:45:23.883Z,3.02
2018-02-16T02:46:25.687Z,2.97
2018-02-16T02:47:23.803Z,3.05
2018-02-16T02:48:23.771Z,3.00
2018-02-16T02:49:23.768Z,2.97
2018-02-16T02:50:23.700Z,2.93
2018-02-16T02:51:23.681Z,2.96
2018-02-16T02:52:23.632Z,2.87
2018-02-16T02:53:23.595Z,2.76
2018-02-16T02:54:23.630Z,2.81
2018-02-16T02:55:23.530Z,2.87
2018-02-16T02:56:23.502Z,2.79
2018-02-16T02:57:23.466Z,2.72
2018-02-16T02:58:23.430Z,2.66
2018-02-16T02:59:23.397Z,2.65
2018-02-16T03:00:23.395Z,2.54
2018-02-16T03:01:26.140Z,2.55
2018-02-16T03:02:23.299Z,2.54
2018-02-16T03:03:23.263Z,2.58
2018-02-16T03:04:26.116Z,2.71
2018-02-16T03:05:23.201Z,2.68
2018-02-16T03:06:23.197Z,2.68
2018-02-16T03:07:23.137Z,2.68
2018-02-16T03:08:23.109Z,2.65
2018-02-16T03:09:23.079Z,2.71
2018-02-16T03:10:23.039Z,2.66
2018-02-16T03:11:23.013Z,2.63
2018-02-16T03:12:22.962Z,2.60
2018-02-16T03:13:22.945Z,2.68
2018-02-16T03:14:22.895Z,2.72
2018-02-16T03:15:22.872Z,2.69
2018-02-16T03:16:22.834Z,2.81
2018-02-16T03:17:22.799Z,2.81
2018-02-16T03:18:22.765Z,2.71
2018-02-16T03:19:22.753Z,2.82
2018-02-16T03:20:24.688Z,2.89
2018-02-16T03:21:22.669Z,2.81
2018-02-16T03:22:22.644Z,2.99
2018-02-16T03:23:22.616Z,2.97
2018-02-16T03:24:22.582Z,2.87
2018-02-16T03:25:24.119Z,2.99
2018-02-16T03:26:22.509Z,2.84
2018-02-16T03:27:22.472Z,2.84
2018-02-16T03:28:22.437Z,2.81
2018-02-16T03:29:22.401Z,2.86
2018-02-16T03:30:22.372Z,2.79
2018-02-16T03:31:22.339Z,2.90
2018-02-16T03:32:24.184Z,2.84
2018-02-16T03:33:22.275Z,2.84
2018-02-16T03:34:24.111Z,2.86
2018-02-16T03:35:22.199Z,2.81
2018-02-16T03:36:22.176Z,2.94
2018-02-16T03:37:22.146Z,2.82
2018-02-16T03:38:22.116Z,2.87
2018-02-16T03:39:22.073Z,2.79
2018-02-16T03:40:22.053Z,2.96
2018-02-16T03:41:22.006Z,2.87
2018-02-16T03:42:21.975Z,2.91
2018-02-16T03:43:21.945Z,2.97
2018-02-16T03:44:21.904Z,2.90
2018-02-16T03:45:23.639Z,3.02
2018-02-16T03:46:21.837Z,3.00
2018-02-16T03:47:21.802Z,3.07
2018-02-16T03:48:21.771Z,3.02
2018-02-16T03:49:23.608Z,3.00
2018-02-16T03:50:21.713Z,3.00
2018-02-16T03:51:21.738Z,3.02
2018-02-16T03:52:21.642Z,3.04
2018-02-16T03:53:23.117Z,3.05
2018-02-16T03:54:21.586Z,2.94
2018-02-16T03:55:21.544Z,3.08
2018-02-16T03:56:21.509Z,3.11
2018-02-16T03:57:21.472Z,3.08
2018-02-16T03:58:21.442Z,3.07
2018-02-16T03:59:21.414Z,3.12
2018-02-16T04:00:21.373Z,3.12
2018-02-16T04:01:21.346Z,3.04
2018-02-16T04:02:21.312Z,3.11
2018-02-16T04:03:21.280Z,3.12
2018-02-16T04:04:21.241Z,3.12
2018-02-16T04:05:23.121Z,3.11
2018-02-16T04:06:21.175Z,3.04
2018-02-16T04:07:23.118Z,2.91
2018-02-16T04:08:21.106Z,3.04
2018-02-16T04:09:21.070Z,3.05
2018-02-16T04:10:21.055Z,3.07
2018-02-16T04:11:21.009Z,3.07
2018-02-16T04:12:20.977Z,3.00
2018-02-16T04:13:20.943Z,3.08
2018-02-16T04:14:20.913Z,3.00
2018-02-16T04:15:20.896Z,2.96
2018-02-16T04:16:20.846Z,2.99
2018-02-16T04:17:20.812Z,3.02
2018-02-16T04:18:20.780Z,3.02
2018-02-16T04:19:22.619Z,3.02
2018-02-16T04:20:20.715Z,3.12
2018-02-16T04:21:20.681Z,3.05
2018-02-16T04:22:22.619Z,2.99
2018-02-16T04:23:20.612Z,2.97
2018-02-16T04:24:20.575Z,2.96
2018-02-16T04:25:20.548Z,2.91
2018-02-16T04:26:20.526Z,2.91
2018-02-16T04:27:20.484Z,3.00
2018-02-16T04:28:23.058Z,2.91
2018-02-16T04:29:23.179Z,2.81
2018-02-16T04:30:20.377Z,2.90
2018-02-16T04:31:23.118Z,2.82
2018-02-16T04:32:23.109Z,2.90
2018-02-16T04:33:20.289Z,2.86
2018-02-16T04:34:22.123Z,2.82
2018-02-16T04:35:20.240Z,2.87
2018-02-16T04:36:20.181Z,2.89
2018-02-16T04:37:20.149Z,2.84
2018-02-16T04:38:20.140Z,2.84
2018-02-16T04:39:20.084Z,2.78
2018-02-16T04:40:21.607Z,2.78
2018-02-16T04:41:20.015Z,2.75
2018-02-16T04:42:19.985Z,2.68
2018-02-16T04:43:19.946Z,2.53
2018-02-16T04:44:19.919Z,2.57
2018-02-16T04:45:19.877Z,2.55
2018-02-16T04:46:19.849Z,2.48
2018-02-16T04:47:19.825Z,2.53
2018-02-16T04:48:19.788Z,2.51
2018-02-16T04:49:19.748Z,2.58
2018-02-16T04:50:19.732Z,2.47
2018-02-16T04:51:19.689Z,2.48
2018-02-16T04:52:19.653Z,2.54
2018-02-16T04:53:19.646Z,2.50
2018-02-16T04:54:19.677Z,2.50
2018-02-16T04:55:19.551Z,2.37
2018-02-16T04:56:19.541Z,2.33
2018-02-16T04:57:19.488Z,2.36
2018-02-16T04:58:19.462Z,2.42
2018-02-16T04:59:22.129Z,2.39
2018-02-16T05:00:19.386Z,2.39
2018-02-16T05:01:19.359Z,2.39
2018-02-16T05:02:19.336Z,2.37
2018-02-16T05:03:19.292Z,2.47
2018-02-16T05:04:19.250Z,2.37
2018-02-16T05:05:19.216Z,2.48
2018-02-16T05:06:19.182Z,2.47
2018-02-16T05:07:19.149Z,2.51
2018-02-16T05:08:19.115Z,2.48
2018-02-16T05:09:19.077Z,2.45
2018-02-16T05:10:19.045Z,2.57
2018-02-16T05:11:19.027Z,2.54
2018-02-16T05:12:18.982Z,2.66
2018-02-16T05:13:18.949Z,2.66
2018-02-16T05:14:18.949Z,2.72
2018-02-16T05:15:18.999Z,2.72
2018-02-16T05:16:18.918Z,2.86
2018-02-16T05:17:20.622Z,2.89
2018-02-16T05:18:18.783Z,2.82
2018-02-16T05:19:18.978Z,2.84
2018-02-16T05:20:18.711Z,2.84
2018-02-16T05:21:18.683Z,2.90
2018-02-16T05:22:18.652Z,2.82
2018-02-16T05:23:18.613Z,2.79
2018-02-16T05:24:18.582Z,2.82
2018-02-16T05:25:18.553Z,2.81
2018-02-16T05:26:18.524Z,2.81
2018-02-16T05:27:18.478Z,2.86
2018-02-16T05:28:18.456Z,2.84
2018-02-16T05:29:18.415Z,2.90
2018-02-16T05:30:18.386Z,2.90
2018-02-16T05:31:18.352Z,2.84
2018-02-16T05:32:18.341Z,2.96
2018-02-16T05:33:18.346Z,2.91
2018-02-16T05:34:18.260Z,2.87
2018-02-16T05:35:18.216Z,2.78
2018-02-16T05:36:18.185Z,2.82
2018-02-16T05:37:20.126Z,2.84
2018-02-16T05:38:18.114Z,2.79
2018-02-16T05:39:18.160Z,2.75
2018-02-16T05:40:18.051Z,2.75
2018-02-16T05:41:18.015Z,2.81
2018-02-16T05:42:17.990Z,2.78
2018-02-16T05:43:19.643Z,2.89
2018-02-16T05:44:17.926Z,2.84
2018-02-16T05:45:17.887Z,2.86
2018-02-16T05:46:17.853Z,2.81
2018-02-16T05:47:17.951Z,2.84
2018-02-16T05:48:19.624Z,2.84
2018-02-16T05:49:17.752Z,2.90
2018-02-16T05:50:17.715Z,2.81
2018-02-16T05:51:20.706Z,2.79
2018-02-16T05:52:17.658Z,2.78
2018-02-16T05:53:17.611Z,2.89
2018-02-16T05:54:19.126Z,2.87
2018-02-16T05:55:17.554Z,2.84
2018-02-16T05:56:17.524Z,2.82
2018-02-16T05:57:17.480Z,2.82
2018-02-16T05:58:17.447Z,2.82
2018-02-16T05:59:17.413Z,2.79
2018-02-16T06:00:17.392Z,2.75
2018-02-16T06:01:17.392Z,2.84
2018-02-16T06:02:17.318Z,2.81
2018-02-16T06:03:20.175Z,2.73
2018-02-16T06:04:17.249Z,2.79
2018-02-16T06:05:17.218Z,2.82
2018-02-16T06:06:17.186Z,2.81
2018-02-16T06:07:17.183Z,2.86
2018-02-16T06:08:17.139Z,2.69
2018-02-16T06:09:17.110Z,2.73
2018-02-16T06:10:17.078Z,2.72
2018-02-16T06:11:17.857Z,2.72
2018-02-16T06:12:16.988Z,2.73
2018-02-16T06:13:16.958Z,2.69
2018-02-16T06:14:16.917Z,2.69
2018-02-16T06:15:17.024Z,2.66
2018-02-16T06:16:16.850Z,2.61
2018-02-16T06:17:16.813Z,2.72
2018-02-16T06:18:16.781Z,2.69
2018-02-16T06:19:16.753Z,2.73
2018-02-16T06:20:16.712Z,2.69
2018-02-16T06:21:16.678Z,2.69
2018-02-16T06:22:16.651Z,2.69
2018-02-16T06:23:19.121Z,2.69
2018-02-16T06:24:16.587Z,2.71
2018-02-16T06:25:16.614Z,2.68
2018-02-16T06:26:16.521Z,2.68
2018-02-16T06:27:16.481Z,2.68
2018-02-16T06:28:16.468Z,2.66
2018-02-16T06:29:16.416Z,2.57
2018-02-16T06:30:16.389Z,2.66
2018-02-16T06:31:16.382Z,2.60
2018-02-16T06:32:16.404Z,2.57
2018-02-16T06:33:16.348Z,2.63
2018-02-16T06:34:16.308Z,2.55
2018-02-16T06:35:16.249Z,2.65
2018-02-16T06:36:16.207Z,2.65
2018-02-16T06:37:16.273Z,2.53
2018-02-16T06:38:16.170Z,2.51
2018-02-16T06:39:17.641Z,2.55
2018-02-16T06:40:16.061Z,2.51
2018-02-16T06:41:16.038Z,2.51
2018-02-16T06:42:15.982Z,2.45
2018-02-16T06:43:16.047Z,2.58
2018-02-16T06:44:17.683Z,2.48
2018-02-16T06:45:15.886Z,2.47
2018-02-16T06:46:15.876Z,2.48
2018-02-16T06:47:15.815Z,2.53
2018-02-16T06:48:15.786Z,2.53
2018-02-16T06:49:15.760Z,2.58
2018-02-16T06:50:15.717Z,2.57
2018-02-16T06:51:15.686Z,2.66
2018-02-16T06:52:15.683Z,2.71
2018-02-16T06:53:15.617Z,2.68
2018-02-16T06:54:15.580Z,2.71
2018-02-16T06:55:15.578Z,2.69
2018-02-16T06:56:15.515Z,2.71
2018-02-16T06:57:15.482Z,2.71
2018-02-16T06:58:15.545Z,2.68
2018-02-16T06:59:15.421Z,2.63
2018-02-16T07:00:15.393Z,2.69
2018-02-16T07:01:15.380Z,2.71
2018-02-16T07:02:15.318Z,2.65
2018-02-16T07:03:18.137Z,2.73
2018-02-16T07:04:15.285Z,2.72
2018-02-16T07:05:15.211Z,2.79
2018-02-16T07:06:15.179Z,2.82
2018-02-16T07:07:15.146Z,2.81
2018-02-16T07:08:16.641Z,2.81
2018-02-16T07:09:15.081Z,2.78
2018-02-16T07:10:15.052Z,2.76
2018-02-16T07:11:15.010Z,2.82
2018-02-16T07:12:15.015Z,2.81
2018-02-16T07:13:14.952Z,2.79
2018-02-16T07:14:14.918Z,2.76
2018-02-16T07:15:14.888Z,2.78
2018-02-16T07:16:14.851Z,2.84
2018-02-16T07:17:14.817Z,2.81
2018-02-16T07:18:14.792Z,2.81
2018-02-16T07:19:14.756Z,2.96
2018-02-16T07:20:16.618Z,2.79
2018-02-16T07:21:14.687Z,2.94
2018-02-16T07:22:14.649Z,2.99
2018-02-16T07:23:14.611Z,2.96
2018-02-16T07:24:14.580Z,2.99
2018-02-16T07:25:14.544Z,3.04
2018-02-16T07:26:14.515Z,3.00
2018-02-16T07:27:14.487Z,3.09
2018-02-16T07:28:14.455Z,3.09
2018-02-16T07:29:16.133Z,3.09
2018-02-16T07:30:14.424Z,3.23
2018-02-16T07:31:14.350Z,3.22
2018-02-16T07:32:14.324Z,3.14
2018-02-16T07:33:14.293Z,3.20
2018-02-16T07:34:14.255Z,3.22
2018-02-16T07:35:14.227Z,3.27
2018-02-16T07:36:14.202Z,3.32
2018-02-16T07:37:14.150Z,3.29
2018-02-16T07:38:14.116Z,3.25
2018-02-16T07:39:14.083Z,3.29
2018-02-16T07:40:15.662Z,3.27
2018-02-16T07:41:15.718Z,3.26
2018-02-16T07:42:15.629Z,3.33
2018-02-16T07:43:13.950Z,3.30
2018-02-16T07:44:13.921Z,3.42
2018-02-16T07:45:15.659Z,3.35
2018-02-16T07:46:13.856Z,3.25
2018-02-16T07:47:15.658Z,3.29
2018-02-16T07:48:16.626Z,3.23
2018-02-16T07:49:13.758Z,3.37
2018-02-16T07:50:13.747Z,3.32
2018-02-16T07:51:13.692Z,3.45
2018-02-16T07:52:13.654Z,3.49
2018-02-16T07:53:15.121Z,3.35
2018-02-16T07:54:13.592Z,3.44
2018-02-16T07:55:13.561Z,3.59
2018-02-16T07:56:13.526Z,3.52
2018-02-16T07:57:13.493Z,3.52
2018-02-16T07:58:13.467Z,3.46
2018-02-16T07:59:13.435Z,3.49
2018-02-16T08:00:15.126Z,3.48
2018-02-16T08:01:13.369Z,3.49
2018-02-16T08:02:13.337Z,3.59
2018-02-16T08:03:13.303Z,3.52
2018-02-16T08:04:13.276Z,3.49
2018-02-16T08:05:16.124Z,3.52
2018-02-16T08:06:13.224Z,3.51
2018-02-16T08:07:15.139Z,3.70
2018-02-16T08:08:13.137Z,3.64
2018-02-16T08:09:14.621Z,3.72
2018-02-16T08:10:13.070Z,3.70
2018-02-16T08:11:13.067Z,3.66
2018-02-16T08:12:15.681Z,3.82
2018-02-16T08:13:12.987Z,3.81
2018-02-16T08:14:12.954Z,3.74
2018-02-16T08:15:12.911Z,3.87
2018-02-16T08:16:12.876Z,3.84
2018-02-16T08:17:12.842Z,3.92
2018-02-16T08:18:12.814Z,3.81
2018-02-16T08:19:12.792Z,3.80
2018-02-16T08:20:12.749Z,3.87
2018-02-16T08:21:12.738Z,3.81
2018-02-16T08:22:12.697Z,3.70
2018-02-16T08:23:12.654Z,3.74
2018-02-16T08:24:14.126Z,3.74
2018-02-16T08:25:12.594Z,3.72
2018-02-16T08:26:13.566Z,3.78
2018-02-16T08:27:12.531Z,3.84
2018-02-16T08:28:12.495Z,3.90
2018-02-16T08:29:12.461Z,3.94
2018-02-16T08:30:12.429Z,4.02
2018-02-16T08:31:12.395Z,4.12
2018-02-16T08:32:12.365Z,4.08
2018-02-16T08:33:12.335Z,4.03
2018-02-16T08:34:12.306Z,4.00
2018-02-16T08:35:12.267Z,4.05
2018-02-16T08:36:12.231Z,3.96
2018-02-16T08:37:12.202Z,4.05
2018-02-16T08:38:12.168Z,4.02
2018-02-16T08:39:12.134Z,3.98
2018-02-16T08:40:14.647Z,3.99
2018-02-16T08:41:13.626Z,3.82
2018-02-16T08:42:12.048Z,3.80
2018-02-16T08:43:12.016Z,3.76
2018-02-16T08:44:11.988Z,3.73
2018-02-16T08:45:11.949Z,3.82
2018-02-16T08:46:11.926Z,3.74
2018-02-16T08:47:14.640Z,3.85
2018-02-16T08:48:11.848Z,3.82
2018-02-16T08:49:11.812Z,3.85
2018-02-16T08:50:11.790Z,3.90
2018-02-16T08:51:11.756Z,3.87
2018-02-16T08:52:11.720Z,3.84
2018-02-16T08:53:11.685Z,3.91
2018-02-16T08:54:11.651Z,3.90
2018-02-16T08:55:11.619Z,3.92
2018-02-16T08:56:11.590Z,3.92
2018-02-16T08:57:14.128Z,3.92
2018-02-16T08:58:11.534Z,3.92
2018-02-16T08:59:13.140Z,3.98
2018-02-16T09:00:11.466Z,3.94
2018-02-16T09:01:13.157Z,3.92
2018-02-16T09:02:11.406Z,3.91
2018-02-16T09:03:11.368Z,4.00
2018-02-16T09:04:11.340Z,4.13
2018-02-16T09:05:11.309Z,4.16
2018-02-16T09:06:11.274Z,4.16
2018-02-16T09:07:11.236Z,4.08
2018-02-16T09:08:11.198Z,4.10
2018-02-16T09:09:11.182Z,4.18
2018-02-16T09:10:11.137Z,4.12
2018-02-16T09:11:11.105Z,4.18
2018-02-16T09:12:11.089Z,4.21
2018-02-16T09:13:13.629Z,4.27
2018-02-16T09:14:11.021Z,4.26
2018-02-16T09:15:10.996Z,4.17
2018-02-16T09:16:10.951Z,4.18
2018-02-16T09:17:12.659Z,4.30
2018-02-16T09:18:10.901Z,4.27
2018-02-16T09:19:10.850Z,4.34
2018-02-16T09:20:10.849Z,4.42
2018-02-16T09:21:13.635Z,4.46
2018-02-16T09:22:10.766Z,4.42
2018-02-16T09:23:10.720Z,4.48
2018-02-16T09:24:10.687Z,4.53
2018-02-16T09:25:10.661Z,4.56
2018-02-16T09:26:10.640Z,4.63
2018-02-16T09:27:10.597Z,4.57
2018-02-16T09:28:10.556Z,4.51
2018-02-16T09:29:10.534Z,4.61
2018-02-16T09:30:10.490Z,4.56
2018-02-16T09:31:12.131Z,4.69
2018-02-16T09:32:10.429Z,4.64
2018-02-16T09:33:10.400Z,4.66
2018-02-16T09:34:10.428Z,4.74
2018-02-16T09:35:10.341Z,4.74
2018-02-16T09:36:10.309Z,4.66
2018-02-16T09:37:10.276Z,4.67
2018-02-16T09:38:10.242Z,4.78
2018-02-16T09:39:12.141Z,4.83
2018-02-16T09:40:10.183Z,4.85
2018-02-16T09:41:10.146Z,4.79
2018-02-16T09:42:10.117Z,4.79
2018-02-16T09:43:10.087Z,4.82
2018-02-16T09:44:11.039Z,4.96
2018-02-16T09:45:10.017Z,4.86
2018-02-16T09:46:09.983Z,4.91
2018-02-16T09:47:09.953Z,5.00
2018-02-16T09:48:09.921Z,5.03
2018-02-16T09:49:09.887Z,5.09
2018-02-16T09:50:09.856Z,5.12
2018-02-16T09:51:09.836Z,5.06
2018-02-16T09:52:09.798Z,5.19
2018-02-16T09:53:09.763Z,5.24
2018-02-16T09:54:09.741Z,5.37
2018-02-16T09:55:09.707Z,5.44
2018-02-16T09:56:09.669Z,5.52
2018-02-16T09:57:09.654Z,5.66
2018-02-16T09:58:09.613Z,5.55
2018-02-16T09:59:09.575Z,5.57
2018-02-16T10:00:09.555Z,5.57
2018-02-16T10:01:09.506Z,5.73
2018-02-16T10:02:09.477Z,5.72
2018-02-16T10:03:09.467Z,5.76
2018-02-16T10:04:09.415Z,5.70
2018-02-16T10:05:09.436Z,5.82
2018-02-16T10:06:09.362Z,5.85
2018-02-16T10:07:09.376Z,5.85
2018-02-16T10:08:09.291Z,5.82
2018-02-16T10:09:09.269Z,5.93
2018-02-16T10:10:11.138Z,5.80
2018-02-16T10:11:09.199Z,5.84
2018-02-16T10:12:11.144Z,5.84
2018-02-16T10:13:09.139Z,5.82
2018-02-16T10:14:09.108Z,5.85
2018-02-16T10:15:11.634Z,6.00
2018-02-16T10:16:09.044Z,6.08
2018-02-16T10:17:09.008Z,6.16
2018-02-16T10:18:08.986Z,6.34
2018-02-16T10:19:08.952Z,6.31
2018-02-16T10:20:10.645Z,6.35
2018-02-16T10:21:08.908Z,6.49
2018-02-16T10:22:08.871Z,6.68
2018-02-16T10:23:10.646Z,6.63
2018-02-16T10:24:08.800Z,6.53
2018-02-16T10:25:08.763Z,6.61
2018-02-16T10:26:08.734Z,6.55
2018-02-16T10:27:08.709Z,6.52
2018-02-16T10:28:08.672Z,6.40
2018-02-16T10:29:08.665Z,6.46
2018-02-16T10:30:11.135Z,6.42
2018-02-16T10:31:08.581Z,6.34
2018-02-16T10:32:08.552Z,6.38
2018-02-16T10:33:08.522Z,6.37
2018-02-16T10:34:08.488Z,6.42
2018-02-16T10:35:08.468Z,6.34
2018-02-16T10:36:08.426Z,6.37
2018-02-16T10:37:08.411Z,6.35
2018-02-16T10:38:08.372Z,6.32
2018-02-16T10:39:08.361Z,6.45
2018-02-16T10:40:08.306Z,6.47
2018-02-16T10:41:08.304Z,6.50
2018-02-16T10:42:08.257Z,6.63
2018-02-16T10:43:08.209Z,6.70
2018-02-16T10:44:08.182Z,6.73
2018-02-16T10:45:08.162Z,6.88
2018-02-16T10:46:08.127Z,7.07
2018-02-16T10:47:08.081Z,6.99
2018-02-16T10:48:08.075Z,7.04
2018-02-16T10:49:08.091Z,7.16
2018-02-16T10:50:07.996Z,7.21
2018-02-16T10:51:07.978Z,7.25
2018-02-16T10:52:07.943Z,7.28
2018-02-16T10:53:07.929Z,7.31
2018-02-16T10:54:10.673Z,7.43
2018-02-16T10:55:07.845Z,7.15
2018-02-16T10:56:07.811Z,7.15
2018-02-16T10:57:07.792Z,7.16
2018-02-16T10:58:07.752Z,7.18
2018-02-16T10:59:07.716Z,7.19
2018-02-16T11:00:09.693Z,7.16
2018-02-16T11:01:07.666Z,7.11
2018-02-16T11:02:07.633Z,7.16
2018-02-16T11:03:07.608Z,7.11
2018-02-16T11:04:07.571Z,7.06
2018-02-16T11:05:07.541Z,7.16
2018-02-16T11:06:07.511Z,7.11
2018-02-16T11:07:07.483Z,7.03
2018-02-16T11:08:07.450Z,7.21
2018-02-16T11:09:07.420Z,7.26
2018-02-16T11:10:07.391Z,7.39
2018-02-16T11:11:07.381Z,7.50
2018-02-16T11:12:07.322Z,7.58
2018-02-16T11:13:07.304Z,7.54
2018-02-16T11:14:07.312Z,7.50
2018-02-16T11:15:07.238Z,7.36
2018-02-16T11:16:07.205Z,7.52
2018-02-16T11:17:07.178Z,7.55
2018-02-16T11:18:07.145Z,7.61
2018-02-16T11:19:09.639Z,7.76
2018-02-16T11:20:07.088Z,7.74
2018-02-16T11:21:08.658Z,7.77
2018-02-16T11:22:08.656Z,7.98
2018-02-16T11:23:06.996Z,7.96
2018-02-16T11:24:06.976Z,7.87
2018-02-16T11:25:06.941Z,7.98
2018-02-16T11:26:06.907Z,8.04
2018-02-16T11:27:08.653Z,8.05
2018-02-16T11:28:06.845Z,8.02
2018-02-16T11:29:06.810Z,7.95
2018-02-16T11:30:06.793Z,7.92
2018-02-16T11:31:06.754Z,7.88
2018-02-16T11:32:06.727Z,8.02
2018-02-16T11:33:06.702Z,8.13
2018-02-16T11:34:06.662Z,7.96
2018-02-16T11:35:06.639Z,7.76
2018-02-16T11:36:06.606Z,7.83
2018-02-16T11:37:09.149Z,7.71
2018-02-16T11:38:06.644Z,7.76
2018-02-16T11:39:06.521Z,7.68
2018-02-16T11:40:06.490Z,7.71
2018-02-16T11:41:06.458Z,7.74
2018-02-16T11:42:06.432Z,7.83
2018-02-16T11:43:06.402Z,7.73
2018-02-16T11:44:06.367Z,7.91
2018-02-16T11:45:08.142Z,8.01
2018-02-16T11:46:09.142Z,8.05
2018-02-16T11:47:06.276Z,8.13
2018-02-16T11:48:06.242Z,8.13
2018-02-16T11:49:09.160Z,8.21
2018-02-16T11:50:06.204Z,8.29
2018-02-16T11:51:06.155Z,8.28
2018-02-16T11:52:06.130Z,8.44
2018-02-16T11:53:07.741Z,8.42
2018-02-16T11:54:06.077Z,8.44
2018-02-16T11:55:07.660Z,8.49
2018-02-16T11:56:07.646Z,8.62
2018-02-16T11:57:05.991Z,8.67
2018-02-16T11:58:05.953Z,8.75
2018-02-16T11:59:05.921Z,8.72
2018-02-16T12:00:05.892Z,8.75
2018-02-16T12:01:05.864Z,8.70
2018-02-16T12:02:07.655Z,8.68
2018-02-16T12:03:05.803Z,8.78
2018-02-16T12:04:05.770Z,8.80
2018-02-16T12:05:05.751Z,8.85
2018-02-16T12:06:05.722Z,8.96
2018-02-16T12:07:05.691Z,9.19
2018-02-16T12:08:05.658Z,9.26
2018-02-16T12:09:05.638Z,9.50
2018-02-16T12:10:05.604Z,9.87
2018-02-16T12:11:05.573Z,10.39
2018-02-16T12:12:05.562Z,10.61
2018-02-16T12:13:05.524Z,11.34
2018-02-16T12:14:07.162Z,11.55
2018-02-16T12:15:05.454Z,11.99
2018-02-16T12:16:05.422Z,12.66
2018-02-16T12:17:05.394Z,13.01
2018-02-16T12:18:05.368Z,13.01
2018-02-16T12:19:07.160Z,13.06
2018-02-16T12:20:05.315Z,13.80
2018-02-16T12:21:05.286Z,13.88
2018-02-16T12:22:05.251Z,13.61
2018-02-16T12:23:08.153Z,13.04
2018-02-16T12:24:05.235Z,13.16
2018-02-16T12:25:05.192Z,14.03
2018-02-16T12:26:05.151Z,13.35
2018-02-16T12:27:05.132Z,12.30
2018-02-16T12:28:05.094Z,12.68
2018-02-16T12:29:05.064Z,12.62
2018-02-16T12:30:06.667Z,11.77
2018-02-16T12:31:05.010Z,10.39
2018-02-16T12:32:04.994Z,11.15
2018-02-16T12:33:04.962Z,12.23
2018-02-16T12:34:07.663Z,12.48
2018-02-16T12:35:04.937Z,12.96
2018-02-16T12:36:04.887Z,12.79
2018-02-16T12:37:04.864Z,12.65
2018-02-16T12:38:07.708Z,13.14
2018-02-16T12:39:04.803Z,13.54
2018-02-16T12:40:04.793Z,14.08
2018-02-16T12:41:04.749Z,14.21
2018-02-16T12:42:04.729Z,13.63
2018-02-16T12:43:06.725Z,13.51
2018-02-16T12:44:04.672Z,13.73
2018-02-16T12:45:06.161Z,13.63
2018-02-16T12:46:04.625Z,13.36
2018-02-16T12:47:07.155Z,13.65
2018-02-16T12:48:04.568Z,13.91
2018-02-16T12:49:04.543Z,13.91
2018-02-16T12:50:04.581Z,14.03
2018-02-16T12:51:04.498Z,13.78
2018-02-16T12:52:04.470Z,13.46
2018-02-16T12:53:04.441Z,13.83
2018-02-16T12:54:04.424Z,13.85
2018-02-16T12:55:04.406Z,13.91
2018-02-16T12:56:04.370Z,12.63
2018-02-16T12:57:04.342Z,13.79
2018-02-16T12:58:04.321Z,13.86
2018-02-16T12:59:06.163Z,13.80
2018-02-16T13:00:04.268Z,14.11
2018-02-16T13:01:04.261Z,13.83
2018-02-16T13:02:04.225Z,12.38
2018-02-16T13:03:04.196Z,11.31
2018-02-16T13:04:04.178Z,12.48
2018-02-16T13:05:04.149Z,13.14
2018-02-16T13:06:05.667Z,13.80
2018-02-16T13:07:04.102Z,14.15
2018-02-16T13:08:04.080Z,14.44
2018-02-16T13:09:04.050Z,15.11
2018-02-16T13:10:04.034Z,15.54
2018-02-16T13:11:04.020Z,15.33
2018-02-16T13:12:03.974Z,14.67
2018-02-16T13:13:03.955Z,14.45
2018-02-16T13:14:05.677Z,15.19
2018-02-16T13:15:03.912Z,14.45
2018-02-16T13:16:03.886Z,15.10